createdAt,value
2023-02-05T00:01:32.930Z,4.14
2023-02-05T00:04:00.276Z,4.13
2023-02-05T00:06:27.392Z,4.10
2023-02-05T00:08:55.576Z,4.07
2023-02-05T00:11:23.471Z,4.05
2023-02-05T00:13:50.384Z,4.02
2023-02-05T00:16:21.014Z,4.01
2023-02-05T00:18:48.314Z,3.99
2023-02-05T00:21:16.388Z,3.99
2023-02-05T00:23:43.713Z,3.98
2023-02-05T00:26:11.019Z,3.98
2023-02-05T00:28:38.137Z,3.97
2023-02-05T00:31:19.656Z,3.96
2023-02-05T00:33:47.518Z,3.96
2023-02-05T00:36:15.181Z,3.95
2023-02-05T00:38:44.080Z,3.96
2023-02-05T00:41:11.757Z,3.99
2023-02-05T00:43:40.131Z,3.97
2023-02-05T00:46:10.594Z,3.98
2023-02-05T00:48:38.748Z,3.98
2023-02-05T00:51:06.168Z,3.97
2023-02-05T00:53:34.340Z,3.98
2023-02-05T00:56:01.482Z,3.96
2023-02-05T00:58:28.799Z,3.96
2023-02-05T01:00:57.958Z,3.96
2023-02-05T01:03:25.016Z,3.96
2023-02-05T01:05:51.953Z,3.95
2023-02-05T01:08:18.961Z,3.96
2023-02-05T01:10:49.500Z,3.96
2023-02-05T01:13:18.243Z,3.95
2023-02-05T01:15:45.946Z,3.95
2023-02-05T01:18:13.144Z,3.95
2023-02-05T01:20:41.889Z,3.95
2023-02-05T01:23:09.955Z,3.95
2023-02-05T01:25:37.554Z,3.94
2023-02-05T01:28:06.591Z,3.92
2023-02-05T01:30:34.136Z,3.91
2023-02-05T01:33:02.308Z,3.91
2023-02-05T01:35:29.668Z,3.91
2023-02-05T01:37:56.583Z,3.92
2023-02-05T01:40:23.622Z,3.90
2023-02-05T01:42:50.640Z,3.88
2023-02-05T01:45:23.562Z,3.88
2023-02-05T01:47:56.947Z,3.87
2023-02-05T01:50:38.872Z,3.87
2023-02-05T01:53:18.806Z,3.86
2023-02-05T01:55:56.091Z,3.86
2023-02-05T01:58:27.452Z,3.85
2023-02-05T02:00:54.763Z,3.84
2023-02-05T02:03:24.521Z,3.83
2023-02-05T02:05:51.777Z,3.81
2023-02-05T02:08:18.841Z,3.80
2023-02-05T02:10:48.294Z,3.79
2023-02-05T02:13:15.671Z,3.76
2023-02-05T02:15:42.869Z,3.75
2023-02-05T02:18:26.812Z,3.74
2023-02-05T02:21:38.953Z,3.71
2023-02-05T02:24:34.136Z,3.67
2023-02-05T02:27:15.988Z,3.62
2023-02-05T02:30:20.600Z,3.59
2023-02-05T02:33:35.170Z,3.54
2023-02-05T02:36:26.735Z,3.50
2023-02-05T02:39:09.316Z,3.46
2023-02-05T02:41:55.578Z,3.43
2023-02-05T02:44:56.098Z,3.40
2023-02-05T02:47:31.466Z,3.39
2023-02-05T02:50:13.099Z,3.38
2023-02-05T02:52:44.221Z,3.37
2023-02-05T02:55:13.256Z,3.37
2023-02-05T02:57:48.786Z,3.37
2023-02-05T03:00:27.238Z,3.36
2023-02-05T03:03:06.715Z,3.38
2023-02-05T03:05:36.610Z,3.37
2023-02-05T03:08:10.352Z,3.38
2023-02-05T03:11:12.654Z,3.40
2023-02-05T03:13:40.779Z,3.41
2023-02-05T03:16:08.264Z,3.40
2023-02-05T03:18:35.812Z,3.40
2023-02-05T03:21:16.700Z,3.41
2023-02-05T03:23:44.670Z,3.42
2023-02-05T03:26:34.921Z,3.43
2023-02-05T03:29:14.614Z,3.44
2023-02-05T03:32:01.284Z,3.46
2023-02-05T03:35:16.109Z,3.47
2023-02-05T03:38:08.810Z,3.47
2023-02-05T03:40:52.832Z,3.48
2023-02-05T03:43:47.694Z,3.48
2023-02-05T03:46:42.432Z,3.49
2023-02-05T03:49:35.256Z,3.48
2023-02-05T03:52:17.136Z,3.46
2023-02-05T03:55:03.603Z,3.45
2023-02-05T03:57:42.365Z,3.45
2023-02-05T04:00:12.646Z,3.45
2023-02-05T04:02:45.407Z,3.42
2023-02-05T04:05:17.360Z,3.39
2023-02-05T04:07:44.639Z,3.37
2023-02-05T04:10:12.756Z,3.35
2023-02-05T04:12:40.891Z,3.33
2023-02-05T04:15:11.574Z,3.31
2023-02-05T04:17:42.371Z,3.31
2023-02-05T04:20:10.711Z,3.30
2023-02-05T04:22:37.725Z,3.30
2023-02-05T04:25:04.953Z,3.27
2023-02-05T04:27:32.050Z,3.27
2023-02-05T04:30:01.030Z,3.26
2023-02-05T04:32:29.054Z,3.27
2023-02-05T04:34:56.076Z,3.27
2023-02-05T04:37:24.887Z,3.26
2023-02-05T04:39:52.027Z,3.25
2023-02-05T04:42:18.957Z,3.27
2023-02-05T04:44:45.923Z,3.26
2023-02-05T04:47:13.975Z,3.25
2023-02-05T04:49:40.904Z,3.25
2023-02-05T04:52:08.197Z,3.26
2023-02-05T04:54:37.092Z,3.26
2023-02-05T04:57:04.053Z,3.27
2023-02-05T04:59:31.569Z,3.28
2023-02-05T05:01:59.596Z,3.30
2023-02-05T05:04:26.943Z,3.30
2023-02-05T05:06:53.833Z,3.30
2023-02-05T05:09:23.945Z,3.32
2023-02-05T05:11:55.033Z,3.33
2023-02-05T05:14:22.473Z,3.33
2023-02-05T05:16:50.228Z,3.33
2023-02-05T05:19:17.218Z,3.33
2023-02-05T05:21:44.162Z,3.36
2023-02-05T05:24:11.119Z,3.40
2023-02-05T05:26:43.535Z,3.42
2023-02-05T05:29:14.344Z,3.43
2023-02-05T05:31:42.424Z,3.43
2023-02-05T05:34:09.376Z,3.44
2023-02-05T05:36:36.325Z,3.42
2023-02-05T05:39:22.025Z,3.44
2023-02-05T05:42:07.194Z,3.45
2023-02-05T05:44:34.122Z,3.47
2023-02-05T05:47:01.028Z,3.48
2023-02-05T05:49:28.136Z,3.49
2023-02-05T05:51:55.034Z,3.48
2023-02-05T05:54:21.981Z,3.48
2023-02-05T05:56:49.601Z,3.48
2023-02-05T05:59:16.711Z,3.48
2023-02-05T06:01:43.670Z,3.48
2023-02-05T06:04:10.655Z,3.47
2023-02-05T06:06:38.054Z,3.47
2023-02-05T06:09:05.046Z,3.47
2023-02-05T06:11:32.033Z,3.47
2023-02-05T06:13:59.000Z,3.47
2023-02-05T06:16:26.217Z,3.47
2023-02-05T06:18:54.862Z,3.45
2023-02-05T06:21:21.880Z,3.45
2023-02-05T06:23:48.881Z,3.43
2023-02-05T06:26:15.932Z,3.43
2023-02-05T06:28:42.866Z,3.40
2023-02-05T06:31:09.901Z,3.38
2023-02-05T06:33:36.832Z,3.36
2023-02-05T06:36:04.186Z,3.35
2023-02-05T06:38:31.134Z,3.36
2023-02-05T06:40:58.046Z,3.36
2023-02-05T06:43:25.038Z,3.35
2023-02-05T06:45:52.053Z,3.34
2023-02-05T06:48:18.994Z,3.33
2023-02-05T06:50:46.389Z,3.32
2023-02-05T06:53:14.002Z,3.33
2023-02-05T06:55:41.000Z,3.34
2023-02-05T06:58:07.969Z,3.34
2023-02-05T07:00:35.911Z,3.34
2023-02-05T07:03:02.994Z,3.34
2023-02-05T07:05:30.004Z,3.34
2023-02-05T07:07:56.941Z,3.34
2023-02-05T07:10:24.014Z,3.36
2023-02-05T07:12:50.939Z,3.37
2023-02-05T07:15:17.915Z,3.38
2023-02-05T07:17:44.854Z,3.40
2023-02-05T07:20:11.858Z,3.38
2023-02-05T07:22:38.918Z,3.40
2023-02-05T07:25:06.291Z,3.39
2023-02-05T07:27:33.257Z,3.41
2023-02-05T07:30:00.222Z,3.40
2023-02-05T07:32:27.165Z,3.40
2023-02-05T07:34:54.063Z,3.39
2023-02-05T07:37:21.623Z,3.39
2023-02-05T07:39:48.729Z,3.38
2023-02-05T07:42:15.715Z,3.36
2023-02-05T07:44:49.562Z,3.36
2023-02-05T07:47:16.656Z,3.35
2023-02-05T07:49:43.579Z,3.35
2023-02-05T07:52:10.484Z,3.33
2023-02-05T07:54:38.152Z,3.33
2023-02-05T07:57:06.940Z,3.33
2023-02-05T07:59:34.017Z,3.32
2023-02-05T08:02:00.971Z,3.31
2023-02-05T08:04:27.952Z,3.30
2023-02-05T08:06:54.916Z,3.30
2023-02-05T08:09:21.844Z,3.29
2023-02-05T08:11:48.846Z,3.28
2023-02-05T08:14:15.796Z,3.28
2023-02-05T08:16:42.751Z,3.28
2023-02-05T08:19:15.750Z,3.26
2023-02-05T08:21:43.884Z,3.25
2023-02-05T08:24:10.955Z,3.26
2023-02-05T08:26:37.874Z,3.26
2023-02-05T08:29:04.837Z,3.26
2023-02-05T08:31:31.816Z,3.27
2023-02-05T08:34:00.019Z,3.27
2023-02-05T08:36:27.819Z,3.27
2023-02-05T08:38:55.124Z,3.28
2023-02-05T08:41:22.672Z,3.28
2023-02-05T08:43:51.307Z,3.28
2023-02-05T08:46:21.865Z,3.28
2023-02-05T08:48:49.353Z,3.29
2023-02-05T08:51:19.455Z,3.30
2023-02-05T08:53:46.862Z,3.31
2023-02-05T08:56:14.351Z,3.34
2023-02-05T08:58:41.771Z,3.35
2023-02-05T09:01:17.482Z,3.38
2023-02-05T09:03:45.393Z,3.39
2023-02-05T09:06:16.018Z,3.40
2023-02-05T09:08:43.505Z,3.42
2023-02-05T09:11:13.338Z,3.44
2023-02-05T09:13:41.060Z,3.46
2023-02-05T09:16:11.190Z,3.47
2023-02-05T09:18:38.221Z,3.50
2023-02-05T09:21:10.322Z,3.51
2023-02-05T09:23:37.868Z,3.52
2023-02-05T09:26:05.441Z,3.53
2023-02-05T09:28:32.428Z,3.57
2023-02-05T09:31:04.187Z,3.57
2023-02-05T09:33:31.173Z,3.59
2023-02-05T09:35:58.062Z,3.62
2023-02-05T09:38:24.971Z,3.65
2023-02-05T09:41:09.473Z,3.67
2023-02-05T09:43:54.784Z,3.70
2023-02-05T09:46:53.301Z,3.71
2023-02-05T09:49:29.613Z,3.75
2023-02-05T09:52:27.302Z,3.77
2023-02-05T09:55:07.573Z,3.79
2023-02-05T09:57:40.638Z,3.81
2023-02-05T10:00:52.598Z,3.84
2023-02-05T10:03:29.770Z,3.87
2023-02-05T10:06:30.881Z,3.89
2023-02-05T10:09:44.498Z,3.90
2023-02-05T10:12:31.948Z,3.93
2023-02-05T10:15:37.368Z,3.94
2023-02-05T10:19:05.375Z,3.96
2023-02-05T10:22:04.571Z,3.98
2023-02-05T10:25:18.243Z,4.00
2023-02-05T10:28:33.412Z,4.02
2023-02-05T10:31:21.845Z,4.01
2023-02-05T10:33:56.041Z,4.02
2023-02-05T10:36:26.668Z,4.02
2023-02-05T10:38:56.984Z,4.02
2023-02-05T10:41:39.639Z,4.03
2023-02-05T10:44:40.302Z,4.01
2023-02-05T10:47:42.300Z,4.01
2023-02-05T10:50:46.752Z,4.00
2023-02-05T10:53:21.193Z,4.01
2023-02-05T10:55:48.673Z,3.99
2023-02-05T10:58:40.456Z,3.99
2023-02-05T11:01:23.725Z,3.99
2023-02-05T11:04:12.427Z,4.00
2023-02-05T11:06:53.436Z,4.01
2023-02-05T11:09:26.303Z,4.02
2023-02-05T11:11:56.485Z,4.03
2023-02-05T11:14:39.722Z,4.04
2023-02-05T11:17:21.105Z,4.06
2023-02-05T11:20:04.848Z,4.07
2023-02-05T11:22:35.746Z,4.07
2023-02-05T11:25:21.280Z,4.07
2023-02-05T11:27:55.663Z,4.07
2023-02-05T11:30:53.084Z,4.08
2023-02-05T11:33:28.770Z,4.10
2023-02-05T11:36:05.562Z,4.10
2023-02-05T11:38:47.900Z,4.11
2023-02-05T11:41:47.965Z,4.12
2023-02-05T11:44:31.964Z,4.13
2023-02-05T11:47:01.577Z,4.14
2023-02-05T11:49:35.296Z,4.13
2023-02-05T11:52:13.967Z,4.13
2023-02-05T11:54:47.442Z,4.14
2023-02-05T11:57:19.961Z,4.15
2023-02-05T12:00:03.546Z,4.17
2023-02-05T12:02:35.793Z,4.17
2023-02-05T12:05:24.040Z,4.19
2023-02-05T12:08:16.124Z,4.19
2023-02-05T12:11:16.894Z,4.19
2023-02-05T12:14:19.513Z,4.20
2023-02-05T12:17:02.772Z,4.20
2023-02-05T12:19:57.036Z,4.20
2023-02-05T12:22:51.029Z,4.19
2023-02-05T12:25:23.746Z,4.19
2023-02-05T12:28:30.774Z,4.19
2023-02-05T12:31:09.486Z,4.21
2023-02-05T12:34:13.774Z,4.22
2023-02-05T12:37:12.023Z,4.24
2023-02-05T12:39:54.573Z,4.23
2023-02-05T12:42:40.404Z,4.24
2023-02-05T12:45:35.271Z,4.25
2023-02-05T12:48:39.151Z,4.27
2023-02-05T12:51:46.940Z,4.28
2023-02-05T12:54:42.534Z,4.29
2023-02-05T12:57:40.536Z,4.28
2023-02-05T13:00:24.340Z,4.29
2023-02-05T13:03:18.454Z,4.30
2023-02-05T13:06:28.156Z,4.30
2023-02-05T13:09:08.103Z,4.32
2023-02-05T13:11:56.316Z,4.33
2023-02-05T13:14:54.809Z,4.35
2023-02-05T13:17:27.029Z,4.33
2023-02-05T13:20:46.814Z,4.35
2023-02-05T13:23:33.760Z,4.36
2023-02-05T13:26:21.964Z,4.37
2023-02-05T13:28:56.988Z,4.38
2023-02-05T13:31:42.104Z,4.40
2023-02-05T13:34:13.981Z,4.40
2023-02-05T13:37:12.971Z,4.42
2023-02-05T13:40:08.941Z,4.42
2023-02-05T13:43:03.304Z,4.43
2023-02-05T13:46:03.282Z,4.46
2023-02-05T13:49:07.302Z,4.48
2023-02-05T13:52:08.076Z,4.51
2023-02-05T13:55:11.863Z,4.53
2023-02-05T13:58:19.366Z,4.55
2023-02-05T14:01:25.494Z,4.58
2023-02-05T14:04:08.573Z,4.61
2023-02-05T14:06:39.916Z,4.64
2023-02-05T14:09:18.969Z,4.68
2023-02-05T14:12:00.006Z,4.70
2023-02-05T14:14:36.117Z,4.72
2023-02-05T14:17:28.824Z,4.75
2023-02-05T14:19:58.809Z,4.77
2023-02-05T14:22:43.212Z,4.78
2023-02-05T14:25:36.873Z,4.79
2023-02-05T14:28:15.943Z,4.80
2023-02-05T14:30:57.220Z,4.80
2023-02-05T14:33:45.515Z,4.79
2023-02-05T14:36:20.746Z,4.80
2023-02-05T14:39:04.124Z,4.82
2023-02-05T14:41:50.332Z,4.84
2023-02-05T14:44:25.741Z,4.85
2023-02-05T14:47:03.175Z,4.89
2023-02-05T14:49:32.902Z,4.88
2023-02-05T14:52:25.529Z,4.88
2023-02-05T14:55:04.822Z,4.89
2023-02-05T14:57:51.910Z,4.91
2023-02-05T15:00:32.322Z,4.93
2023-02-05T15:03:04.719Z,4.95
2023-02-05T15:05:36.586Z,4.96
2023-02-05T15:08:34.609Z,4.98
2023-02-05T15:11:46.432Z,4.99
2023-02-05T15:14:30.766Z,4.99
2023-02-05T15:17:06.641Z,4.99
2023-02-05T15:19:42.026Z,5.00
2023-02-05T15:22:40.520Z,4.99
2023-02-05T15:25:35.959Z,4.98
2023-02-05T15:28:21.755Z,4.98
2023-02-05T15:31:14.901Z,4.97
2023-02-05T15:34:34.586Z,4.94
2023-02-05T15:37:10.288Z,4.92
2023-02-05T15:39:44.843Z,4.89
2023-02-05T15:42:28.093Z,4.86
2023-02-05T15:44:55.200Z,4.85
2023-02-05T15:47:26.128Z,4.84
2023-02-05T15:49:57.825Z,4.82
2023-02-05T15:52:29.533Z,4.80
2023-02-05T15:55:08.556Z,4.79
2023-02-05T15:57:35.686Z,4.76
2023-02-05T16:00:07.362Z,4.75
2023-02-05T16:02:34.487Z,4.73
2023-02-05T16:05:16.847Z,4.72
2023-02-05T16:07:48.493Z,4.69
2023-02-05T16:10:23.256Z,4.67
2023-02-05T16:13:05.193Z,4.65
2023-02-05T16:15:40.767Z,4.62
2023-02-05T16:18:32.976Z,4.59
2023-02-05T16:21:38.626Z,4.58
2023-02-05T16:24:33.194Z,4.55
2023-02-05T16:27:18.958Z,4.54
2023-02-05T16:29:54.954Z,4.53
2023-02-05T16:32:33.538Z,4.53
2023-02-05T16:35:03.909Z,4.53
2023-02-05T16:37:32.088Z,4.52
2023-02-05T16:40:03.222Z,4.52
2023-02-05T16:42:38.137Z,4.51
2023-02-05T16:45:08.127Z,4.50
2023-02-05T16:47:36.374Z,4.49
2023-02-05T16:50:38.018Z,4.47
2023-02-05T16:53:22.032Z,4.45
2023-02-05T16:55:52.023Z,4.45
2023-02-05T16:58:26.252Z,4.44
2023-02-05T17:00:59.661Z,4.43
2023-02-05T17:03:34.916Z,4.43
2023-02-05T17:06:08.707Z,4.43
2023-02-05T17:08:37.110Z,4.42
2023-02-05T17:11:34.473Z,4.42
2023-02-05T17:14:32.929Z,4.41
2023-02-05T17:17:17.184Z,4.41
2023-02-05T17:20:01.651Z,4.41
2023-02-05T17:22:28.726Z,4.40
2023-02-05T17:24:55.727Z,4.40
2023-02-05T17:27:33.531Z,4.38
2023-02-05T17:30:00.610Z,4.40
2023-02-05T17:32:29.276Z,4.38
2023-02-05T17:34:56.320Z,4.38
2023-02-05T17:37:23.371Z,4.38
2023-02-05T17:39:51.449Z,4.39
2023-02-05T17:42:24.978Z,4.36
2023-02-05T17:44:53.564Z,4.38
2023-02-05T17:47:20.557Z,4.38
2023-02-05T17:49:47.774Z,4.38
2023-02-05T17:52:15.661Z,4.38
2023-02-05T17:54:43.560Z,4.38
2023-02-05T17:57:22.353Z,4.37
2023-02-05T17:59:50.072Z,4.37
2023-02-05T18:02:17.583Z,4.37
2023-02-05T18:04:45.294Z,4.37
2023-02-05T18:07:38.197Z,4.36
2023-02-05T18:10:06.566Z,4.36
2023-02-05T18:12:33.571Z,4.36
2023-02-05T18:15:00.544Z,4.36
2023-02-05T18:17:27.479Z,4.36
2023-02-05T18:19:54.438Z,4.35
2023-02-05T18:22:21.595Z,4.35
2023-02-05T18:24:48.539Z,4.35
2023-02-05T18:27:15.546Z,4.34
2023-02-05T18:29:43.809Z,4.35
2023-02-05T18:32:10.989Z,4.34
2023-02-05T18:34:39.788Z,4.33
2023-02-05T18:37:06.784Z,4.33
2023-02-05T18:39:33.690Z,4.31
2023-02-05T18:42:00.878Z,4.31
2023-02-05T18:44:28.042Z,4.29
2023-02-05T18:46:55.069Z,4.28
2023-02-05T18:49:22.177Z,4.25
2023-02-05T18:51:49.155Z,4.24
2023-02-05T18:54:16.106Z,4.22
2023-02-05T18:56:43.151Z,4.19
2023-02-05T18:59:15.876Z,4.15
2023-02-05T19:01:43.140Z,4.15
2023-02-05T19:04:14.249Z,4.12
2023-02-05T19:06:48.895Z,4.10
2023-02-05T19:09:15.917Z,4.07
2023-02-05T19:11:44.103Z,4.05
2023-02-05T19:14:14.354Z,4.04
2023-02-05T19:16:41.427Z,4.02
2023-02-05T19:19:08.755Z,4.01
2023-02-05T19:21:36.156Z,3.98
2023-02-05T19:24:09.625Z,3.96
2023-02-05T19:26:39.422Z,3.93
2023-02-05T19:29:11.849Z,3.90
2023-02-05T19:31:38.923Z,3.88
2023-02-05T19:34:06.392Z,3.86
2023-02-05T19:36:33.917Z,3.84
2023-02-05T19:39:06.577Z,3.82
2023-02-05T19:41:35.822Z,3.80
2023-02-05T19:44:06.480Z,3.77
2023-02-05T19:46:41.925Z,3.75
2023-02-05T19:49:17.349Z,3.74
2023-02-05T19:51:46.393Z,3.72
2023-02-05T19:54:14.909Z,3.70
2023-02-05T19:56:45.266Z,3.68
2023-02-05T19:59:13.070Z,3.66
2023-02-05T20:01:43.619Z,3.66
2023-02-05T20:04:24.756Z,3.64
2023-02-05T20:06:55.655Z,3.62
2023-02-05T20:09:23.289Z,3.59
2023-02-05T20:11:52.657Z,3.59
2023-02-05T20:14:20.248Z,3.59
2023-02-05T20:16:47.458Z,3.59
2023-02-05T20:19:16.841Z,3.59
2023-02-05T20:21:45.717Z,3.58
2023-02-05T20:24:13.021Z,3.59
2023-02-05T20:26:40.028Z,3.58
2023-02-05T20:29:25.635Z,3.58
2023-02-05T20:31:54.746Z,3.54
2023-02-05T20:34:30.270Z,3.54
2023-02-05T20:37:04.727Z,3.52
2023-02-05T20:39:34.772Z,3.51
2023-02-05T20:42:02.485Z,3.49
2023-02-05T20:44:33.731Z,3.50
2023-02-05T20:47:00.803Z,3.50
2023-02-05T20:49:28.388Z,3.49
2023-02-05T20:51:57.972Z,3.49
2023-02-05T20:54:25.000Z,3.49
2023-02-05T20:56:56.881Z,3.47
2023-02-05T20:59:24.662Z,3.45
2023-02-05T21:01:52.054Z,3.43
2023-02-05T21:04:20.289Z,3.43
2023-02-05T21:06:48.116Z,3.42
2023-02-05T21:09:16.880Z,3.41
2023-02-05T21:11:43.786Z,3.40
2023-02-05T21:14:11.175Z,3.38
2023-02-05T21:16:39.024Z,3.37
2023-02-05T21:19:07.589Z,3.36
2023-02-05T21:21:36.723Z,3.34
2023-02-05T21:24:08.328Z,3.33
2023-02-05T21:26:46.159Z,3.31
2023-02-05T21:29:20.444Z,3.28
2023-02-05T21:31:50.669Z,3.29
2023-02-05T21:34:23.545Z,3.27
2023-02-05T21:36:51.679Z,3.27
2023-02-05T21:39:20.297Z,3.25
2023-02-05T21:41:48.497Z,3.23
2023-02-05T21:44:15.386Z,3.24
2023-02-05T21:46:42.714Z,3.22
2023-02-05T21:49:11.273Z,3.22
2023-02-05T21:51:38.314Z,3.21
2023-02-05T21:54:06.238Z,3.20
2023-02-05T21:56:40.862Z,3.21
2023-02-05T21:59:08.280Z,3.21
2023-02-05T22:01:36.735Z,3.20
2023-02-05T22:04:15.635Z,3.20
2023-02-05T22:06:43.279Z,3.21
2023-02-05T22:09:14.632Z,3.22
2023-02-05T22:11:42.251Z,3.23
2023-02-05T22:14:10.948Z,3.22
2023-02-05T22:16:38.949Z,3.22
2023-02-05T22:19:06.704Z,3.23
2023-02-05T22:21:37.404Z,3.22
2023-02-05T22:24:06.540Z,3.20
2023-02-05T22:26:37.033Z,3.19
2023-02-05T22:29:07.050Z,3.17
2023-02-05T22:31:34.947Z,3.14
2023-02-05T22:34:02.480Z,3.11
2023-02-05T22:36:32.637Z,3.09
2023-02-05T22:39:00.140Z,3.04
2023-02-05T22:41:34.551Z,3.02
2023-02-05T22:44:03.829Z,2.99
2023-02-05T22:46:34.860Z,2.97
2023-02-05T22:49:03.153Z,2.93
2023-02-05T22:51:34.036Z,2.91
2023-02-05T22:54:01.290Z,2.89
2023-02-05T22:56:28.630Z,2.85
2023-02-05T22:58:56.560Z,2.83
2023-02-05T23:01:30.179Z,2.82
2023-02-05T23:03:58.590Z,2.80
2023-02-05T23:06:35.162Z,2.80
2023-02-05T23:09:16.525Z,2.79
2023-02-05T23:11:44.635Z,2.78
2023-02-05T23:14:13.911Z,2.76
2023-02-05T23:16:44.440Z,2.76
2023-02-05T23:19:16.128Z,2.74
2023-02-05T23:21:43.219Z,2.73
2023-02-05T23:24:10.673Z,2.74
2023-02-05T23:26:42.570Z,2.74
2023-02-05T23:29:12.254Z,2.76
2023-02-05T23:31:39.573Z,2.77
2023-02-05T23:34:06.761Z,2.77
2023-02-05T23:36:33.819Z,2.76
2023-02-05T23:39:00.812Z,2.77
2023-02-05T23:41:37.097Z,2.77
2023-02-05T23:44:15.775Z,2.77
2023-02-05T23:46:43.709Z,2.78
2023-02-05T23:49:11.294Z,2.77
2023-02-05T23:51:38.707Z,2.77
2023-02-05T23:54:08.587Z,2.76
2023-02-05T23:56:35.508Z,2.76
2023-02-05T23:59:03.164Z,2.75
